sensor_id;sensor_type;location;lat;lon;timestamp;pressure;altitude;pressure_sealevel;temperature;humidity
20160;BME280;50187;50.492;12.134;2022-10-31T00:02:32;98064.34;;;19.93;47.97
20160;BME280;50187;50.492;12.134;2022-10-31T00:05:17;98077.38;;;19.98;47.98
20160;BME280;50187;50.492;12.134;2022-10-31T00:08:02;98082.94;;;19.96;47.87
20160;BME280;50187;50.492;12.134;2022-10-31T00:10:48;98078.66;;;19.94;47.74
20160;BME280;50187;50.492;12.134;2022-10-31T00:13:32;98081.22;;;19.95;47.76
20160;BME280;50187;50.492;12.134;2022-10-31T00:16:22;98084.06;;;19.94;47.68
20160;BME280;50187;50.492;12.134;2022-10-31T00:19:08;98076.84;;;19.94;47.67
20160;BME280;50187;50.492;12.134;2022-10-31T00:21:53;98087.78;;;19.93;47.72
20160;BME280;50187;50.492;12.134;2022-10-31T00:24:39;98088.63;;;19.93;47.73
20160;BME280;50187;50.492;12.134;2022-10-31T00:27:24;98084.06;;;19.94;47.91
20160;BME280;50187;50.492;12.134;2022-10-31T00:30:12;98087.78;;;19.93;47.94
20160;BME280;50187;50.492;12.134;2022-10-31T00:32:57;98094.19;;;19.92;47.67
20160;BME280;50187;50.492;12.134;2022-10-31T00:35:49;98085.66;;;19.86;47.72
20160;BME280;50187;50.492;12.134;2022-10-31T00:38:34;98098.59;;;19.93;47.86
20160;BME280;50187;50.492;12.134;2022-10-31T00:41:20;98095.19;;;19.90;47.95
20160;BME280;50187;50.492;12.134;2022-10-31T00:44:05;98101.41;;;19.91;47.90
20160;BME280;50187;50.492;12.134;2022-10-31T00:46:50;98102.28;;;19.92;47.62
20160;BME280;50187;50.492;12.134;2022-10-31T00:49:39;98102.28;;;19.92;47.87
20160;BME280;50187;50.492;12.134;2022-10-31T00:52:25;98107.69;;;19.92;47.70
20160;BME280;50187;50.492;12.134;2022-10-31T00:55:09;98113.09;;;19.92;47.80
20160;BME280;50187;50.492;12.134;2022-10-31T00:57:54;98111.22;;;19.92;47.60
20160;BME280;50187;50.492;12.134;2022-10-31T01:00:40;98103.44;;;19.89;47.89
20160;BME280;50187;50.492;12.134;2022-10-31T01:03:27;98106.97;;;19.89;47.46
20160;BME280;50187;50.492;12.134;2022-10-31T01:06:13;98106.81;;;19.91;47.79
20160;BME280;50187;50.492;12.134;2022-10-31T01:08:58;98111.38;;;19.90;47.72
20160;BME280;50187;50.492;12.134;2022-10-31T01:11:44;98105.97;;;19.90;47.64
20160;BME280;50187;50.492;12.134;2022-10-31T01:14:29;98102.44;;;19.90;47.57
20160;BME280;50187;50.492;12.134;2022-10-31T01:17:14;98103.44;;;19.89;47.68
20160;BME280;50187;50.492;12.134;2022-10-31T01:20:00;98109.41;;;19.93;47.53
20160;BME280;50187;50.492;12.134;2022-10-31T01:22:45;98105.81;;;19.92;47.72
20160;BME280;50187;50.492;12.134;2022-10-31T01:25:30;98101.28;;;19.93;47.54
20160;BME280;50187;50.492;12.134;2022-10-31T01:28:15;98102.13;;;19.93;47.62
20160;BME280;50187;50.492;12.134;2022-10-31T01:31:06;98105.81;;;19.92;47.47
20160;BME280;50187;50.492;12.134;2022-10-31T01:33:52;98105.28;;;19.88;47.71
20160;BME280;50187;50.492;12.134;2022-10-31T01:36:38;98105.28;;;19.88;47.54
20160;BME280;50187;50.492;12.134;2022-10-31T01:39:23;98104.41;;;19.88;47.53
20160;BME280;50187;50.492;12.134;2022-10-31T01:42:26;98110.69;;;19.88;47.75
20160;BME280;50187;50.492;12.134;2022-10-31T01:45:13;98105.28;;;19.88;47.54
20160;BME280;50187;50.492;12.134;2022-10-31T01:48:00;98107.97;;;19.88;47.70
20160;BME280;50187;50.492;12.134;2022-10-31T01:50:48;98120.38;;;19.81;47.68
20160;BME280;50187;50.492;12.134;2022-10-31T01:53:35;98101.03;;;19.86;47.72
20160;BME280;50187;50.492;12.134;2022-10-31T01:56:21;98102.84;;;19.85;47.46
20160;BME280;50187;50.492;12.134;2022-10-31T01:59:11;98101.03;;;19.86;47.73
20160;BME280;50187;50.492;12.134;2022-10-31T02:01:59;98098.31;;;19.86;47.69
20160;BME280;50187;50.492;12.134;2022-10-31T02:04:44;98104.56;;;19.86;47.62
20160;BME280;50187;50.492;12.134;2022-10-31T02:07:38;98106.28;;;19.87;47.61
20160;BME280;50187;50.492;12.134;2022-10-31T02:10:24;98098.31;;;19.86;47.62
20160;BME280;50187;50.492;12.134;2022-10-31T02:13:11;98101.19;;;19.84;47.41
20160;BME280;50187;50.492;12.134;2022-10-31T02:16:02;98100.31;;;19.84;47.49
20160;BME280;50187;50.492;12.134;2022-10-31T02:18:48;98103.88;;;19.84;47.43
20160;BME280;50187;50.492;12.134;2022-10-31T02:21:48;98107.41;;;19.85;47.60
20160;BME280;50187;50.492;12.134;2022-10-31T02:28:09;98104.72;;;19.85;47.50
20160;BME280;50187;50.492;12.134;2022-10-31T02:31:28;98098.47;;;19.84;47.50
20160;BME280;50187;50.492;12.134;2022-10-31T02:40:34;98101.31;;;19.83;47.61
20160;BME280;50187;50.492;12.134;2022-10-31T02:43:45;98096.91;;;19.82;47.59
20160;BME280;50187;50.492;12.134;2022-10-31T02:47:03;98089.66;;;19.82;47.49
20160;BME280;50187;50.492;12.134;2022-10-31T02:49:59;98089.97;;;19.79;47.30
20160;BME280;50187;50.492;12.134;2022-10-31T02:52:50;98088.97;;;19.80;47.59
20160;BME280;50187;50.492;12.134;2022-10-31T02:58:22;98088.97;;;19.80;47.37
20160;BME280;50187;50.492;12.134;2022-10-31T03:07:23;98092.78;;;19.78;47.66
20160;BME280;50187;50.492;12.134;2022-10-31T03:10:13;98100.59;;;19.81;47.29
20160;BME280;50187;50.492;12.134;2022-10-31T03:16:23;98107.00;;;19.80;47.40
20160;BME280;50187;50.492;12.134;2022-10-31T03:19:20;98105.28;;;19.79;47.58
20160;BME280;50187;50.492;12.134;2022-10-31T03:22:22;98107.00;;;19.80;47.45
20160;BME280;50187;50.492;12.134;2022-10-31T03:25:09;98101.72;;;19.78;47.35
20160;BME280;50187;50.492;12.134;2022-10-31T03:27:55;98101.72;;;19.78;47.28
20160;BME280;50187;50.492;12.134;2022-10-31T03:30:44;98105.28;;;19.79;47.17
20160;BME280;50187;50.492;12.134;2022-10-31T03:33:33;98107.13;;;19.78;47.26
20160;BME280;50187;50.492;12.134;2022-10-31T03:36:20;98110.69;;;19.79;47.22
20160;BME280;50187;50.492;12.134;2022-10-31T03:39:08;98107.25;;;19.77;47.25
20160;BME280;50187;50.492;12.134;2022-10-31T03:42:03;98103.72;;;19.76;47.43
20160;BME280;50187;50.492;12.134;2022-10-31T03:44:54;98112.50;;;19.78;47.36
20160;BME280;50187;50.492;12.134;2022-10-31T03:47:42;98102.59;;;19.79;47.13
20160;BME280;50187;50.492;12.134;2022-10-31T03:50:38;98101.72;;;19.78;47.40
20160;BME280;50187;50.492;12.134;2022-10-31T03:53:34;98101.72;;;19.78;47.10
20160;BME280;50187;50.492;12.134;2022-10-31T03:56:29;98108.97;;;19.78;47.14
20160;BME280;50187;50.492;12.134;2022-10-31T03:59:31;98106.56;;;19.74;47.19
20160;BME280;50187;50.492;12.134;2022-10-31T04:02:22;98113.53;;;19.77;47.33
20160;BME280;50187;50.492;12.134;2022-10-31T04:05:12;98109.13;;;19.76;47.10
20160;BME280;50187;50.492;12.134;2022-10-31T04:08:01;98109.13;;;19.76;47.41
20160;BME280;50187;50.492;12.134;2022-10-31T04:10:49;98100.31;;;19.74;47.26
20160;BME280;50187;50.492;12.134;2022-10-31T04:13:38;98109.13;;;19.76;47.30
20160;BME280;50187;50.492;12.134;2022-10-31T04:16:30;98104.72;;;19.75;47.28
20160;BME280;50187;50.492;12.134;2022-10-31T04:19:15;98112.81;;;19.75;47.17
20160;BME280;50187;50.492;12.134;2022-10-31T04:22:01;98111.97;;;19.74;47.18
20160;BME280;50187;50.492;12.134;2022-10-31T04:24:47;98118.22;;;19.75;47.10
20160;BME280;50187;50.492;12.134;2022-10-31T04:27:34;98111.09;;;19.74;47.23
20160;BME280;50187;50.492;12.134;2022-10-31T04:30:19;98108.56;;;19.72;47.24
20160;BME280;50187;50.492;12.134;2022-10-31T04:33:04;98116.66;;;19.72;47.25
20160;BME280;50187;50.492;12.134;2022-10-31T04:35:50;98112.53;;;19.68;47.12
20160;BME280;50187;50.492;12.134;2022-10-31T04:38:36;98113.09;;;19.72;47.24
20160;BME280;50187;50.492;12.134;2022-10-31T04:41:28;98109.72;;;19.70;47.26
20160;BME280;50187;50.492;12.134;2022-10-31T04:44:18;98115.38;;;19.67;47.40
20160;BME280;50187;50.492;12.134;2022-10-31T04:47:07;98114.53;;;19.66;47.19
20160;BME280;50187;50.492;12.134;2022-10-31T04:49:53;98120.94;;;19.65;47.12
20160;BME280;50187;50.492;12.134;2022-10-31T04:52:43;98111.84;;;19.66;47.09
20160;BME280;50187;50.492;12.134;2022-10-31T04:55:31;98109.44;;;19.63;47.26
20160;BME280;50187;50.492;12.134;2022-10-31T04:58:33;98117.41;;;19.65;47.34
20160;BME280;50187;50.492;12.134;2022-10-31T05:01:18;98119.09;;;19.66;47.17
20160;BME280;50187;50.492;12.134;2022-10-31T05:04:06;98120.94;;;19.65;47.14
20160;BME280;50187;50.492;12.134;2022-10-31T05:06:51;98123.78;;;19.64;47.20
20160;BME280;50187;50.492;12.134;2022-10-31T05:09:36;98124.66;;;19.64;47.30
20160;BME280;50187;50.492;12.134;2022-10-31T05:12:22;98118.38;;;19.64;47.32
20160;BME280;50187;50.492;12.134;2022-10-31T05:15:36;98114.84;;;19.63;47.07
20160;BME280;50187;50.492;12.134;2022-10-31T05:18:40;98119.25;;;19.64;47.29
20160;BME280;50187;50.492;12.134;2022-10-31T05:21:57;98121.22;;;19.62;47.09
20160;BME280;50187;50.492;12.134;2022-10-31T05:24:42;98114.84;;;19.63;47.04
20160;BME280;50187;50.492;12.134;2022-10-31T05:27:28;98116.56;;;19.64;47.06
20160;BME280;50187;50.492;12.134;2022-10-31T05:30:19;98114.69;;;19.65;47.04
20160;BME280;50187;50.492;12.134;2022-10-31T05:33:05;98115.53;;;19.65;47.07
20160;BME280;50187;50.492;12.134;2022-10-31T05:36:09;98116.41;;;19.66;46.99
20160;BME280;50187;50.492;12.134;2022-10-31T05:38:59;98121.81;;;19.66;47.02
20160;BME280;50187;50.492;12.134;2022-10-31T05:41:51;98118.22;;;19.65;47.20
20160;BME280;50187;50.492;12.134;2022-10-31T05:44:39;98121.81;;;19.66;47.05
20160;BME280;50187;50.492;12.134;2022-10-31T05:47:36;98125.50;;;19.65;47.21
20160;BME280;50187;50.492;12.134;2022-10-31T05:50:43;98120.94;;;19.65;47.10
20160;BME280;50187;50.492;12.134;2022-10-31T05:53:29;98130.06;;;19.64;47.19
20160;BME280;50187;50.492;12.134;2022-10-31T05:56:14;98138.25;;;19.63;47.00
20160;BME280;50187;50.492;12.134;2022-10-31T05:58:59;98127.47;;;19.63;47.08
20160;BME280;50187;50.492;12.134;2022-10-31T06:01:44;98129.19;;;19.64;46.95
20160;BME280;50187;50.492;12.134;2022-10-31T06:04:59;98132.03;;;19.62;46.96
20160;BME280;50187;50.492;12.134;2022-10-31T06:07:44;98129.19;;;19.64;46.90
20160;BME280;50187;50.492;12.134;2022-10-31T06:10:30;98138.25;;;19.63;47.13
20160;BME280;50187;50.492;12.134;2022-10-31T06:13:15;98127.63;;;19.61;46.91
20160;BME280;50187;50.492;12.134;2022-10-31T06:16:03;98132.16;;;19.61;47.14
20160;BME280;50187;50.492;12.134;2022-10-31T06:18:53;98137.56;;;19.61;47.01
20160;BME280;50187;50.492;12.134;2022-10-31T06:21:39;98134.16;;;19.59;47.12
20160;BME280;50187;50.492;12.134;2022-10-31T06:24:25;98130.59;;;19.58;47.16
20160;BME280;50187;50.492;12.134;2022-10-31T06:27:10;98139.84;;;19.55;46.99
20160;BME280;50187;50.492;12.134;2022-10-31T06:29:55;98134.75;;;19.52;47.07
20160;BME280;50187;50.492;12.134;2022-10-31T06:32:52;98132.19;;;19.51;47.29
20160;BME280;50187;50.492;12.134;2022-10-31T06:35:37;98134.75;;;19.52;47.23
20160;BME280;50187;50.492;12.134;2022-10-31T06:38:23;98132.19;;;19.51;47.17
20160;BME280;50187;50.492;12.134;2022-10-31T06:41:09;98133.03;;;19.51;47.23
20160;BME280;50187;50.492;12.134;2022-10-31T06:44:01;98136.91;;;19.49;46.95
20160;BME280;50187;50.492;12.134;2022-10-31T06:47:10;98143.81;;;19.51;47.28
20160;BME280;50187;50.492;12.134;2022-10-31T06:50:28;98146.66;;;19.50;47.26
20160;BME280;50187;50.492;12.134;2022-10-31T06:53:13;98146.81;;;19.48;47.00
20160;BME280;50187;50.492;12.134;2022-10-31T06:55:59;98154.91;;;19.48;47.01
20160;BME280;50187;50.492;12.134;2022-10-31T06:58:44;98150.50;;;19.47;47.10
20160;BME280;50187;50.492;12.134;2022-10-31T07:01:31;98165.00;;;19.46;46.98
20160;BME280;50187;50.492;12.134;2022-10-31T07:04:18;98159.16;;;19.51;47.25
20160;BME280;50187;50.492;12.134;2022-10-31T07:07:05;98159.16;;;19.51;47.10
20160;BME280;50187;50.492;12.134;2022-10-31T07:09:51;98165.41;;;19.51;46.92
20160;BME280;50187;50.492;12.134;2022-10-31T07:12:47;98169.81;;;19.52;46.98
20160;BME280;50187;50.492;12.134;2022-10-31T07:15:34;98177.06;;;19.52;47.20
20160;BME280;50187;50.492;12.134;2022-10-31T07:18:21;98170.53;;;19.54;47.20
20160;BME280;50187;50.492;12.134;2022-10-31T07:21:06;98176.06;;;19.53;47.20
20160;BME280;50187;50.492;12.134;2022-10-31T07:23:52;98179.63;;;19.53;47.12
20160;BME280;50187;50.492;12.134;2022-10-31T07:27:07;98179.63;;;19.53;46.96
20160;BME280;50187;50.492;12.134;2022-10-31T07:29:52;98176.06;;;19.53;47.19
20160;BME280;50187;50.492;12.134;2022-10-31T07:32:42;98180.63;;;19.52;47.21
20160;BME280;50187;50.492;12.134;2022-10-31T07:35:30;98181.59;;;19.51;46.98
20160;BME280;50187;50.492;12.134;2022-10-31T07:38:17;98172.66;;;19.51;47.02
20160;BME280;50187;50.492;12.134;2022-10-31T07:41:02;98172.66;;;19.51;47.16
20160;BME280;50187;50.492;12.134;2022-10-31T07:43:49;98176.19;;;19.51;47.19
20160;BME280;50187;50.492;12.134;2022-10-31T07:46:34;98170.09;;;19.49;47.08
20160;BME280;50187;50.492;12.134;2022-10-31T07:49:38;98171.09;;;19.48;47.02
20160;BME280;50187;50.492;12.134;2022-10-31T07:52:44;98172.81;;;19.49;47.13
20160;BME280;50187;50.492;12.134;2022-10-31T07:55:48;98170.81;;;19.51;47.05
20160;BME280;50187;50.492;12.134;2022-10-31T07:58:33;98171.81;;;19.50;47.04
20160;BME280;50187;50.492;12.134;2022-10-31T08:01:18;98167.13;;;19.52;47.28
20160;BME280;50187;50.492;12.134;2022-10-31T08:04:17;98163.59;;;19.52;47.29
20160;BME280;50187;50.492;12.134;2022-10-31T08:07:22;98162.72;;;19.51;47.05
20160;BME280;50187;50.492;12.134;2022-10-31T08:10:17;98163.44;;;19.53;47.29
20160;BME280;50187;50.492;12.134;2022-10-31T08:13:05;98165.25;;;19.53;47.23
20160;BME280;50187;50.492;12.134;2022-10-31T08:15:51;98165.97;;;19.55;47.29
20160;BME280;50187;50.492;12.134;2022-10-31T08:18:42;98172.94;;;19.58;47.23
20160;BME280;50187;50.492;12.134;2022-10-31T08:21:31;98168.25;;;19.60;47.23
20160;BME280;50187;50.492;12.134;2022-10-31T08:24:17;98166.28;;;19.62;47.00
20160;BME280;50187;50.492;12.134;2022-10-31T08:27:03;98158.88;;;19.64;46.95
20160;BME280;50187;50.492;12.134;2022-10-31T08:29:50;98153.47;;;19.64;47.07
20160;BME280;50187;50.492;12.134;2022-10-31T08:32:36;98155.19;;;19.65;47.31
20160;BME280;50187;50.492;12.134;2022-10-31T08:35:40;98154.03;;;19.67;46.99
20160;BME280;50187;50.492;12.134;2022-10-31T08:39:00;98152.91;;;19.70;46.91
20160;BME280;50187;50.492;12.134;2022-10-31T08:41:47;98153.88;;;19.79;46.67
20160;BME280;50187;50.492;12.134;2022-10-31T08:44:33;98145.34;;;19.83;46.82
20160;BME280;50187;50.492;12.134;2022-10-31T08:47:18;98145.63;;;19.90;46.66
20160;BME280;50187;50.492;12.134;2022-10-31T08:50:03;98141.78;;;19.93;46.62
20160;BME280;50187;50.492;12.134;2022-10-31T08:52:48;98133.69;;;19.93;46.82
20160;BME280;50187;50.492;12.134;2022-10-31T08:55:54;98138.50;;;19.99;46.56
20160;BME280;50187;50.492;12.134;2022-10-31T08:58:42;98135.50;;;20.02;46.66
20160;BME280;50187;50.492;12.134;2022-10-31T09:01:28;98121.53;;;20.06;46.64
20160;BME280;50187;50.492;12.134;2022-10-31T09:04:14;98122.09;;;20.10;46.41
20160;BME280;50187;50.492;12.134;2022-10-31T09:06:59;98123.22;;;20.17;46.56
20160;BME280;50187;50.492;12.134;2022-10-31T09:10:05;98125.03;;;20.27;46.38
20160;BME280;50187;50.492;12.134;2022-10-31T09:12:58;98120.00;;;20.32;46.09
20160;BME280;50187;50.492;12.134;2022-10-31T09:16:02;98118.41;;;20.39;45.90
20160;BME280;50187;50.492;12.134;2022-10-31T09:18:49;98118.66;;;20.46;46.01
20160;BME280;50187;50.492;12.134;2022-10-31T09:21:34;98114.50;;;20.51;45.93
20160;BME280;50187;50.492;12.134;2022-10-31T09:24:20;98111.34;;;20.56;45.65
20160;BME280;50187;50.492;12.134;2022-10-31T09:27:05;98118.00;;;20.62;45.55
20160;BME280;50187;50.492;12.134;2022-10-31T09:29:53;98108.72;;;20.64;45.56
20160;BME280;50187;50.492;12.134;2022-10-31T09:32:39;98112.53;;;20.71;45.35
20160;BME280;50187;50.492;12.134;2022-10-31T09:35:25;98114.81;;;20.76;45.63
20160;BME280;50187;50.492;12.134;2022-10-31T09:38:17;98116.88;;;20.82;45.23
20160;BME280;50187;50.492;12.134;2022-10-31T09:41:19;98116.41;;;20.87;45.32
20160;BME280;50187;50.492;12.134;2022-10-31T09:44:17;98116.97;;;20.90;45.44
20160;BME280;50187;50.492;12.134;2022-10-31T09:47:22;98119.22;;;20.95;45.00
20160;BME280;50187;50.492;12.134;2022-10-31T09:50:42;98117.59;;;21.02;45.06
20160;BME280;50187;50.492;12.134;2022-10-31T09:53:55;98119.13;;;21.05;45.12
20160;BME280;50187;50.492;12.134;2022-10-31T09:56:44;98113.41;;;21.08;44.77
20160;BME280;50187;50.492;12.134;2022-10-31T09:59:38;98112.97;;;21.13;44.88
20160;BME280;50187;50.492;12.134;2022-10-31T10:02:37;98112.66;;;21.16;44.96
20160;BME280;50187;50.492;12.134;2022-10-31T10:05:32;98115.88;;;21.19;44.91
20160;BME280;50187;50.492;12.134;2022-10-31T10:08:27;98103.72;;;21.23;44.91
20160;BME280;50187;50.492;12.134;2022-10-31T10:26:38;98090.34;;;21.40;44.70
20160;BME280;50187;50.492;12.134;2022-10-31T10:29:33;98093.28;;;21.47;44.50
20160;BME280;50187;50.492;12.134;2022-10-31T10:32:23;98085.66;;;21.50;44.39
20160;BME280;50187;50.492;12.134;2022-10-31T10:35:26;98085.41;;;21.53;44.19
20160;BME280;50187;50.492;12.134;2022-10-31T10:41:08;98080.34;;;21.58;44.36
20160;BME280;50187;50.492;12.134;2022-10-31T10:43:56;98082.22;;;21.58;44.27
20160;BME280;50187;50.492;12.134;2022-10-31T10:46:45;98072.78;;;21.62;44.32
20160;BME280;50187;50.492;12.134;2022-10-31T10:49:52;98070.91;;;21.63;44.37
20160;BME280;50187;50.492;12.134;2022-10-31T10:55:53;98066.19;;;21.65;44.28
20160;BME280;50187;50.492;12.134;2022-10-31T10:58:42;98064.00;;;21.68;44.05
20160;BME280;50187;50.492;12.134;2022-10-31T11:01:27;98058.41;;;21.70;44.08
20160;BME280;50187;50.492;12.134;2022-10-31T11:04:25;98059.13;;;21.72;44.02
20160;BME280;50187;50.492;12.134;2022-10-31T11:07:11;98052.84;;;21.71;43.83
20160;BME280;50187;50.492;12.134;2022-10-31T11:10:04;98043.72;;;21.72;44.02
20160;BME280;50187;50.492;12.134;2022-10-31T11:16:03;98033.06;;;21.71;43.95
20160;BME280;50187;50.492;12.134;2022-10-31T11:18:49;98041.19;;;21.71;44.12
20160;BME280;50187;50.492;12.134;2022-10-31T11:21:34;98024.25;;;21.69;44.00
20160;BME280;50187;50.492;12.134;2022-10-31T11:24:24;98026.97;;;21.69;44.28
20160;BME280;50187;50.492;12.134;2022-10-31T11:27:25;98021.53;;;21.69;44.23
20160;BME280;50187;50.492;12.134;2022-10-31T11:30:13;98017.97;;;21.68;44.08
20160;BME280;50187;50.492;12.134;2022-10-31T11:32:58;98017.47;;;21.65;44.32
20160;BME280;50187;50.492;12.134;2022-10-31T11:35:44;98011.34;;;21.63;44.18
20160;BME280;50187;50.492;12.134;2022-10-31T11:38:49;98010.66;;;21.60;44.21
20160;BME280;50187;50.492;12.134;2022-10-31T11:41:36;98009.63;;;21.61;44.18
20160;BME280;50187;50.492;12.134;2022-10-31T11:44:29;98000.84;;;21.59;44.48
20160;BME280;50187;50.492;12.134;2022-10-31T11:47:17;98002.00;;;21.57;44.27
20160;BME280;50187;50.492;12.134;2022-10-31T11:50:18;97999.47;;;21.55;44.42
20160;BME280;50187;50.492;12.134;2022-10-31T11:53:17;97996.91;;;21.54;44.37
20160;BME280;50187;50.492;12.134;2022-10-31T11:56:10;97985.84;;;21.47;44.66
20160;BME280;50187;50.492;12.134;2022-10-31T11:59:05;97980.97;;;21.51;44.45
20160;BME280;50187;50.492;12.134;2022-10-31T12:01:59;97975.56;;;21.51;44.45
20160;BME280;50187;50.492;12.134;2022-10-31T12:04:50;97981.31;;;21.48;44.78
20160;BME280;50187;50.492;12.134;2022-10-31T12:07:36;97973.84;;;21.50;44.57
20160;BME280;50187;50.492;12.134;2022-10-31T12:10:34;97967.22;;;21.44;44.72
20160;BME280;50187;50.492;12.134;2022-10-31T12:13:30;97966.75;;;21.49;44.62
20160;BME280;50187;50.492;12.134;2022-10-31T12:16:30;97957.63;;;21.50;44.80
20160;BME280;50187;50.492;12.134;2022-10-31T12:22:24;97952.91;;;21.52;44.77
20160;BME280;50187;50.492;12.134;2022-10-31T12:31:37;97939.25;;;21.53;44.60
20160;BME280;50187;50.492;12.134;2022-10-31T12:34:47;97930.38;;;21.51;44.80
20160;BME280;50187;50.492;12.134;2022-10-31T12:40:49;97919.19;;;21.46;44.75
20160;BME280;50187;50.492;12.134;2022-10-31T12:44:00;97928.84;;;21.49;44.63
20160;BME280;50187;50.492;12.134;2022-10-31T12:47:03;97920.06;;;21.47;44.86
20160;BME280;50187;50.492;12.134;2022-10-31T12:50:02;97920.22;;;21.45;44.87
20160;BME280;50187;50.492;12.134;2022-10-31T12:53:04;97911.56;;;21.41;44.94
20160;BME280;50187;50.492;12.134;2022-10-31T12:56:04;97914.09;;;21.43;44.93
20160;BME280;50187;50.492;12.134;2022-10-31T13:02:03;97910.19;;;21.37;44.93
20160;BME280;50187;50.492;12.134;2022-10-31T13:04:55;97900.53;;;21.35;44.90
20160;BME280;50187;50.492;12.134;2022-10-31T13:07:46;97911.53;;;21.33;45.18
20160;BME280;50187;50.492;12.134;2022-10-31T13:11:23;97903.91;;;21.28;45.09
20160;BME280;50187;50.492;12.134;2022-10-31T13:16:44;97899.44;;;21.19;45.10
20160;BME280;50187;50.492;12.134;2022-10-31T13:19:38;97896.75;;;21.19;45.31
20160;BME280;50187;50.492;12.134;2022-10-31T13:22:31;97892.81;;;21.14;45.39
20160;BME280;50187;50.492;12.134;2022-10-31T13:25:24;97903.13;;;21.10;45.23
20160;BME280;50187;50.492;12.134;2022-10-31T13:31:14;97891.78;;;21.06;45.38
20160;BME280;50187;50.492;12.134;2022-10-31T13:34:04;97888.56;;;21.03;45.68
20160;BME280;50187;50.492;12.134;2022-10-31T13:46:24;97894.25;;;20.91;45.84
20160;BME280;50187;50.492;12.134;2022-10-31T13:52:16;97882.38;;;20.84;45.99
20160;BME280;50187;50.492;12.134;2022-10-31T13:55:01;97887.94;;;20.83;46.10
20160;BME280;50187;50.492;12.134;2022-10-31T13:57:46;97889.09;;;20.80;46.04
20160;BME280;50187;50.492;12.134;2022-10-31T14:00:31;97876.72;;;20.78;46.21
20160;BME280;50187;50.492;12.134;2022-10-31T14:03:21;97866.25;;;20.74;46.20
20160;BME280;50187;50.492;12.134;2022-10-31T14:09:58;97870.44;;;20.69;46.44
20160;BME280;50187;50.492;12.134;2022-10-31T14:12:46;97871.28;;;20.69;46.30
20160;BME280;50187;50.492;12.134;2022-10-31T14:15:32;97870.59;;;20.67;46.27
20160;BME280;50187;50.492;12.134;2022-10-31T14:18:37;97865.44;;;20.64;46.46
20160;BME280;50187;50.492;12.134;2022-10-31T14:30:14;97852.41;;;20.59;46.63
20160;BME280;50187;50.492;12.134;2022-10-31T14:36:11;97849.03;;;20.57;46.73
20160;BME280;50187;50.492;12.134;2022-10-31T14:39:16;97854.59;;;20.56;46.74
20160;BME280;50187;50.492;12.134;2022-10-31T14:43:04;97843.41;;;20.51;46.69
20160;BME280;50187;50.492;12.134;2022-10-31T14:51:47;97833.44;;;20.51;46.80
20160;BME280;50187;50.492;12.134;2022-10-31T14:54:39;97834.59;;;20.49;46.84
20160;BME280;50187;50.492;12.134;2022-10-31T14:57:29;97830.91;;;20.50;46.71
20160;BME280;50187;50.492;12.134;2022-10-31T15:00:18;97832.94;;;20.48;46.74
20160;BME280;50187;50.492;12.134;2022-10-31T15:03:42;97824.97;;;20.46;46.74
20160;BME280;50187;50.492;12.134;2022-10-31T15:06:52;97831.53;;;20.44;46.77
20160;BME280;50187;50.492;12.134;2022-10-31T15:09:39;97816.16;;;20.44;47.05
20160;BME280;50187;50.492;12.134;2022-10-31T15:12:33;97826.13;;;20.44;46.99
20160;BME280;50187;50.492;12.134;2022-10-31T15:15:24;97813.63;;;20.42;46.78
20160;BME280;50187;50.492;12.134;2022-10-31T15:18:17;97816.50;;;20.41;46.82
20160;BME280;50187;50.492;12.134;2022-10-31T15:21:03;97810.25;;;20.40;47.04
20160;BME280;50187;50.492;12.134;2022-10-31T15:23:58;97811.25;;;20.39;47.03
20160;BME280;50187;50.492;12.134;2022-10-31T15:26:46;97806.69;;;20.40;46.85
20160;BME280;50187;50.492;12.134;2022-10-31T15:29:32;97800.59;;;20.38;47.03
20160;BME280;50187;50.492;12.134;2022-10-31T15:32:22;97798.06;;;20.36;47.08
20160;BME280;50187;50.492;12.134;2022-10-31T15:35:09;97800.91;;;20.35;47.12
20160;BME280;50187;50.492;12.134;2022-10-31T15:37:56;97797.34;;;20.34;47.00
20160;BME280;50187;50.492;12.134;2022-10-31T15:40:51;97801.75;;;20.35;47.13
20160;BME280;50187;50.492;12.134;2022-10-31T15:43:39;97801.75;;;20.35;46.87
20160;BME280;50187;50.492;12.134;2022-10-31T15:46:25;97794.66;;;20.34;46.94
20160;BME280;50187;50.492;12.134;2022-10-31T15:49:26;97788.41;;;20.34;46.96
20160;BME280;50187;50.492;12.134;2022-10-31T15:52:35;97792.13;;;20.33;47.07
20160;BME280;50187;50.492;12.134;2022-10-31T15:55:31;97783.63;;;20.28;47.15
20160;BME280;50187;50.492;12.134;2022-10-31T15:58:18;97787.34;;;20.27;47.26
20160;BME280;50187;50.492;12.134;2022-10-31T16:01:22;97783.63;;;20.28;47.36
20160;BME280;50187;50.492;12.134;2022-10-31T16:07:15;97776.72;;;20.25;47.37
20160;BME280;50187;50.492;12.134;2022-10-31T16:10:25;97775.84;;;20.24;47.35
20160;BME280;50187;50.492;12.134;2022-10-31T16:13:11;97771.47;;;20.23;47.25
20160;BME280;50187;50.492;12.134;2022-10-31T16:16:11;97775.00;;;20.24;47.36
20160;BME280;50187;50.492;12.134;2022-10-31T16:19:21;97779.69;;;20.22;47.38
20160;BME280;50187;50.492;12.134;2022-10-31T16:22:11;97778.88;;;20.21;47.26
20160;BME280;50187;50.492;12.134;2022-10-31T16:25:17;97779.69;;;20.22;47.48
20160;BME280;50187;50.492;12.134;2022-10-31T16:28:14;97775.50;;;20.19;47.35
20160;BME280;50187;50.492;12.134;2022-10-31T16:31:12;97774.78;;;20.17;47.55
20160;BME280;50187;50.492;12.134;2022-10-31T16:34:15;97778.31;;;20.18;47.40
20160;BME280;50187;50.492;12.134;2022-10-31T16:37:11;97776.66;;;20.17;47.36
20160;BME280;50187;50.492;12.134;2022-10-31T16:39:56;97775.25;;;20.13;47.57
20160;BME280;50187;50.492;12.134;2022-10-31T16:42:42;97779.34;;;20.17;47.47
20160;BME280;50187;50.492;12.134;2022-10-31T16:45:30;97788.59;;;20.14;47.40